Time;durP1;ratioP1;P1;durP2;ratioP2;P2;SDS_P1;SDS_P2;PMS_P1;PMS_P2;Temp;Humidity;BMP_temperature;BMP_pressure;BME280_temperature;BME280_humidity;BME280_pressure;Samples;Min_cycle;Max_cycle;Signal;HPM_P1;HPM_P2
2021/11/16 00:00:43;;;;;;;14.85;9.23;;;4.70;99.90;;;;;;4985187;28;20194;-65
2021/11/16 00:03:11;;;;;;;16.42;9.48;;;4.70;99.90;;;;;;4987293;28;20117;-66
2021/11/16 00:05:38;;;;;;;14.65;8.88;;;4.70;99.90;;;;;;4986487;28;20070;-65
2021/11/16 00:08:06;;;;;;;11.00;8.60;;;4.70;99.90;;;;;;4987148;28;20062;-67
2021/11/16 00:10:37;;;;;;;11.38;8.50;;;4.70;99.90;;;;;;4982632;28;20034;-65
2021/11/16 00:13:10;;;;;;;13.07;10.57;;;4.70;99.90;;;;;;4988325;28;20129;-66
2021/11/16 00:15:40;;;;;;;15.15;8.18;;;4.80;99.90;;;;;;4987799;28;20420;-67
2021/11/16 00:18:07;;;;;;;12.87;9.63;;;4.80;99.90;;;;;;4986150;28;20078;-75
2021/11/16 00:20:39;;;;;;;13.45;9.18;;;4.80;99.90;;;;;;4999660;28;20429;-64
2021/11/16 00:23:14;;;;;;;17.42;10.40;;;4.80;99.90;;;;;;4986664;28;20104;-66
2021/11/16 00:25:41;;;;;;;13.20;9.02;;;4.80;99.90;;;;;;4985120;28;20618;-64
2021/11/16 00:28:08;;;;;;;11.73;8.63;;;4.80;99.90;;;;;;4987138;28;20109;-65
2021/11/16 00:30:35;;;;;;;11.25;7.75;;;4.80;99.90;;;;;;4988302;28;20046;-74
2021/11/16 00:33:02;;;;;;;13.48;10.15;;;4.80;99.90;;;;;;4987126;28;20468;-64
2021/11/16 00:35:29;;;;;;;10.73;8.13;;;4.80;99.90;;;;;;4981895;28;20072;-63
2021/11/16 00:37:56;;;;;;;13.30;8.70;;;4.80;99.90;;;;;;4987472;28;20100;-68
2021/11/16 00:40:23;;;;;;;14.88;10.63;;;4.80;99.90;;;;;;4983976;28;20042;-64
2021/11/16 00:42:51;;;;;;;16.23;9.93;;;4.80;99.90;;;;;;4987065;28;20042;-64
2021/11/16 00:45:18;;;;;;;11.55;8.65;;;4.80;99.90;;;;;;4986653;28;20105;-75
2021/11/16 00:47:45;;;;;;;14.90;9.77;;;4.80;99.90;;;;;;4987486;28;20080;-64
2021/11/16 00:50:15;;;;;;;11.10;8.45;;;4.80;99.90;;;;;;4982688;28;20089;-64
2021/11/16 00:52:44;;;;;;;14.82;9.70;;;4.80;99.90;;;;;;4985811;28;20085;-65
2021/11/16 00:55:11;;;;;;;14.07;8.50;;;4.80;99.90;;;;;;4986548;28;20081;-64
2021/11/16 00:57:38;;;;;;;19.10;10.25;;;4.80;99.90;;;;;;4983965;28;20471;-67
2021/11/16 01:00:08;;;;;;;17.80;9.65;;;4.80;99.90;;;;;;4992529;28;20112;-67
2021/11/16 01:02:35;;;;;;;15.20;11.00;;;4.80;99.90;;;;;;4999272;28;21579;-68
2021/11/16 01:05:03;;;;;;;14.30;9.15;;;4.80;99.90;;;;;;4986883;28;20093;-65
2021/11/16 01:07:31;;;;;;;15.80;10.05;;;4.80;99.90;;;;;;4984566;28;20046;-64
2021/11/16 01:09:59;;;;;;;12.52;8.50;;;4.80;99.90;;;;;;4985366;28;20704;-63
2021/11/16 01:12:26;;;;;;;12.32;9.00;;;4.80;99.90;;;;;;4982822;28;20057;-64
2021/11/16 01:14:57;;;;;;;18.00;9.50;;;4.80;99.90;;;;;;4985873;28;20074;-64
2021/11/16 01:17:24;;;;;;;;;;;4.80;99.90;;;;;;4979718;28;20472;-63
2021/11/16 01:19:51;;;;;;;12.00;8.63;;;4.80;99.90;;;;;;4983937;28;19929;-64
2021/11/16 01:22:18;;;;;;;13.77;8.68;;;4.80;99.90;;;;;;4984768;28;20691;-65
2021/11/16 01:24:46;;;;;;;12.82;8.10;;;4.80;99.90;;;;;;4985468;28;20528;-70
2021/11/16 01:27:18;;;;;;;12.95;8.68;;;4.80;99.90;;;;;;4985606;28;20392;-66
2021/11/16 01:29:50;;;;;;;11.25;8.02;;;4.80;99.90;;;;;;4984441;28;20046;-64
2021/11/16 01:32:59;;;;;;;14.50;10.60;;;4.80;99.90;;;;;;4982222;28;20054;-68
2021/11/16 01:35:12;;;;;;;12.75;9.10;;;4.80;99.90;;;;;;4984055;28;20058;-63
2021/11/16 01:37:40;;;;;;;10.35;8.20;;;4.80;99.90;;;;;;4984126;28;20054;-70
2021/11/16 01:40:11;;;;;;;13.80;9.10;;;4.80;99.90;;;;;;4985694;28;20124;-66
2021/11/16 01:42:45;;;;;;;12.23;8.23;;;4.80;99.90;;;;;;4981321;28;20054;-67
2021/11/16 01:45:14;;;;;;;17.27;10.68;;;4.80;99.90;;;;;;4994466;28;20069;-66
2021/11/16 01:47:44;;;;;;;16.42;9.63;;;4.80;99.90;;;;;;4997143;28;20042;-65
2021/11/16 01:50:16;;;;;;;13.23;8.80;;;4.90;99.90;;;;;;5013573;28;20105;-68
2021/11/16 01:52:44;;;;;;;11.93;9.70;;;4.90;99.90;;;;;;4982796;28;20057;-66
2021/11/16 01:55:16;;;;;;;14.70;10.27;;;4.90;99.90;;;;;;4999427;28;20109;-72
2021/11/16 01:57:44;;;;;;;11.60;8.50;;;4.90;99.90;;;;;;4981378;28;20138;-64
2021/11/16 02:00:18;;;;;;;16.13;11.00;;;4.90;99.90;;;;;;4978284;28;20134;-64
2021/11/16 02:02:46;;;;;;;13.52;8.52;;;4.90;99.90;;;;;;4976918;28;20042;-65
2021/11/16 02:05:15;;;;;;;17.80;11.48;;;4.90;99.90;;;;;;4998394;28;20059;-66
2021/11/16 02:07:47;;;;;;;12.65;8.77;;;4.90;99.90;;;;;;5015948;28;20038;-64
2021/11/16 02:10:15;;;;;;;12.05;8.40;;;4.90;99.90;;;;;;4987797;28;20100;-67
2021/11/16 02:12:43;;;;;;;14.40;9.47;;;4.90;99.90;;;;;;4999783;28;20057;-64
2021/11/16 02:15:11;;;;;;;13.70;9.68;;;4.90;99.90;;;;;;4989002;28;20178;-65
2021/11/16 02:17:38;;;;;;;17.55;9.63;;;4.90;99.90;;;;;;4993661;28;20132;-65
2021/11/16 02:20:06;;;;;;;17.52;8.95;;;4.90;99.90;;;;;;5003241;28;20065;-64
2021/11/16 02:22:33;;;;;;;13.45;8.82;;;4.90;99.90;;;;;;4987289;28;20497;-65
2021/11/16 02:25:00;;;;;;;14.45;9.98;;;4.90;99.90;;;;;;4989754;28;20073;-64
2021/11/16 02:27:27;;;;;;;13.75;8.45;;;4.90;99.90;;;;;;4985435;28;20069;-63
2021/11/16 02:29:54;;;;;;;16.27;9.32;;;4.90;99.90;;;;;;4987865;28;20050;-64
2021/11/16 02:32:21;;;;;;;14.70;9.07;;;4.90;99.90;;;;;;4987405;28;20468;-63
2021/11/16 02:34:49;;;;;;;13.50;8.68;;;4.90;99.90;;;;;;4986067;28;20468;-72
2021/11/16 02:37:15;;;;;;;13.88;8.93;;;5.00;99.90;;;;;;4986647;28;20120;-70
2021/11/16 02:39:43;;;;;;;17.90;11.18;;;4.90;99.90;;;;;;4992530;28;20046;-67
2021/11/16 02:42:10;;;;;;;11.85;8.10;;;4.90;99.90;;;;;;4980304;28;20047;-66
2021/11/16 02:44:40;;;;;;;11.18;8.63;;;5.00;99.90;;;;;;4988336;28;20404;-66
2021/11/16 02:47:07;;;;;;;17.15;9.63;;;4.90;99.90;;;;;;4985915;28;20447;-66
2021/11/16 02:49:35;;;;;;;14.95;10.43;;;4.90;99.90;;;;;;4986479;28;20074;-66
2021/11/16 02:52:10;;;;;;;12.10;8.55;;;4.90;99.90;;;;;;4987768;28;20082;-64
2021/11/16 02:54:38;;;;;;;17.67;10.18;;;4.90;99.90;;;;;;4987341;28;20061;-68
2021/11/16 02:57:07;;;;;;;15.73;10.23;;;4.90;99.90;;;;;;4986368;28;20141;-63
2021/11/16 02:59:34;;;;;;;16.48;10.82;;;4.90;99.90;;;;;;4989306;28;20049;-63
2021/11/16 03:02:01;;;;;;;15.93;10.98;;;5.00;99.90;;;;;;4988382;28;20493;-64
2021/11/16 03:04:33;;;;;;;15.63;10.48;;;4.90;99.90;;;;;;4987735;28;20708;-63
2021/11/16 03:07:04;;;;;;;14.38;8.65;;;4.90;99.90;;;;;;4988152;28;20104;-64
2021/11/16 03:09:33;;;;;;;12.52;9.52;;;4.90;99.90;;;;;;4985392;28;20042;-73
2021/11/16 03:12:00;;;;;;;13.40;9.60;;;4.90;99.90;;;;;;4978520;28;20074;-64
2021/11/16 03:14:29;;;;;;;16.13;8.88;;;4.90;99.90;;;;;;4985001;28;20062;-66
2021/11/16 03:16:57;;;;;;;15.88;10.38;;;4.90;99.90;;;;;;4988930;28;20079;-64
2021/11/16 03:19:24;;;;;;;16.50;10.63;;;5.00;99.90;;;;;;4988178;28;20054;-64
2021/11/16 03:21:55;;;;;;;16.77;10.57;;;5.00;99.90;;;;;;4985419;28;20046;-69
2021/11/16 03:24:25;;;;;;;12.65;8.68;;;5.00;99.90;;;;;;4983741;28;20089;-74
2021/11/16 03:26:53;;;;;;;17.23;10.27;;;5.00;99.90;;;;;;4985977;28;20136;-65
2021/11/16 03:29:24;;;;;;;16.50;11.07;;;5.00;99.90;;;;;;4988465;28;20322;-64
2021/11/16 03:32:04;;;;;;;18.92;11.27;;;5.00;99.90;;;;;;4986155;28;20050;-73
2021/11/16 03:34:31;;;;;;;15.90;10.52;;;5.00;99.90;;;;;;4985538;28;20046;-69
2021/11/16 03:36:59;;;;;;;16.90;9.98;;;5.00;99.90;;;;;;4983343;28;20556;-66
2021/11/16 03:39:27;;;;;;;19.52;11.73;;;5.00;99.90;;;;;;4983653;28;20149;-66
2021/11/16 03:41:54;;;;;;;16.35;10.60;;;5.00;99.90;;;;;;4982577;28;20073;-70
2021/11/16 03:44:21;;;;;;;18.15;12.00;;;5.00;99.90;;;;;;4984331;28;20137;-63
2021/11/16 03:46:48;;;;;;;18.30;11.20;;;5.00;99.90;;;;;;4983741;28;20344;-63
2021/11/16 03:49:15;;;;;;;16.10;9.77;;;5.00;99.90;;;;;;4985548;28;20054;-67
2021/11/16 03:51:47;;;;;;;17.77;10.52;;;5.00;99.90;;;;;;4981729;28;20088;-63
2021/11/16 03:54:15;;;;;;;17.52;11.23;;;5.00;99.90;;;;;;4986604;28;20049;-63
2021/11/16 03:56:42;;;;;;;16.08;10.43;;;5.00;99.90;;;;;;4983777;28;20125;-68
2021/11/16 03:59:09;;;;;;;20.88;11.80;;;5.00;99.90;;;;;;4986495;28;20077;-65
2021/11/16 04:01:36;;;;;;;19.95;13.13;;;5.00;99.90;;;;;;4985720;28;20034;-64
2021/11/16 04:04:05;;;;;;;23.25;13.35;;;5.10;99.90;;;;;;4988285;28;20394;-70
2021/11/16 04:06:32;;;;;;;19.67;12.40;;;5.10;99.90;;;;;;4980731;28;20092;-64
2021/11/16 04:09:00;;;;;;;21.25;12.13;;;5.10;99.90;;;;;;4988684;28;20148;-65
2021/11/16 04:11:27;;;;;;;25.95;13.70;;;5.10;99.90;;;;;;4984094;28;20054;-63
2021/11/16 04:13:54;;;;;;;17.00;12.63;;;5.10;99.90;;;;;;4983396;28;20463;-64
2021/11/16 04:16:22;;;;;;;27.70;13.23;;;5.10;99.90;;;;;;4984428;28;20137;-63
2021/11/16 04:18:50;;;;;;;23.50;13.60;;;5.10;99.90;;;;;;4986497;28;20062;-68
2021/11/16 04:21:17;;;;;;;19.00;14.52;;;5.10;99.90;;;;;;4987610;28;20081;-65
2021/11/16 04:23:44;;;;;;;21.17;12.27;;;5.10;99.90;;;;;;4991078;28;20109;-70
2021/11/16 04:26:11;;;;;;;24.98;13.68;;;5.10;99.90;;;;;;4985838;28;20108;-67
2021/11/16 04:28:39;;;;;;;23.67;14.35;;;5.10;99.90;;;;;;4984733;28;20412;-64
2021/11/16 04:31:06;;;;;;;19.52;12.70;;;5.20;99.90;;;;;;4986316;28;20043;-65
2021/11/16 04:33:33;;;;;;;27.35;13.65;;;5.10;99.90;;;;;;4984189;28;20101;-63
2021/11/16 04:36:02;;;;;;;21.20;15.35;;;5.10;99.90;;;;;;4998911;28;20070;-67
2021/11/16 04:38:29;;;;;;;27.02;15.77;;;5.10;99.90;;;;;;4983580;28;20524;-64
2021/11/16 04:40:57;;;;;;;20.23;14.38;;;5.10;99.90;;;;;;4985984;28;20054;-66
2021/11/16 04:43:27;;;;;;;25.08;15.02;;;5.10;99.90;;;;;;4983532;28;20039;-63
2021/11/16 04:46:03;;;;;;;25.83;15.40;;;5.10;99.90;;;;;;4987440;28;20101;-63
2021/11/16 04:48:53;;;;;;;26.25;15.57;;;5.20;99.90;;;;;;4996002;28;20100;-72
2021/11/16 04:54:32;;;;;;;30.58;17.60;;;5.20;99.90;;;;;;4987225;28;20137;-66
2021/11/16 05:02:40;;;;;;;30.52;18.35;;;5.20;99.90;;;;;;4980745;28;20053;-67
2021/11/16 05:05:16;;;;;;;22.52;15.30;;;5.20;99.90;;;;;;4978847;28;20074;-64
2021/11/16 05:07:56;;;;;;;26.23;15.68;;;5.20;99.90;;;;;;4985043;28;20042;-67
2021/11/16 05:10:23;;;;;;;25.27;16.80;;;5.20;99.90;;;;;;4982706;28;20066;-63
2021/11/16 05:12:51;;;;;;;28.88;14.75;;;5.20;99.90;;;;;;4984709;28;20729;-63
2021/11/16 05:15:20;;;;;;;22.08;14.75;;;5.20;99.90;;;;;;4978508;28;20085;-65
2021/11/16 05:17:49;;;;;;;21.98;17.13;;;5.20;99.90;;;;;;4982942;28;20066;-63
2021/11/16 05:20:18;;;;;;;26.00;16.65;;;5.20;99.90;;;;;;4985882;28;20082;-65
2021/11/16 05:22:50;;;;;;;26.45;15.07;;;5.20;99.90;;;;;;4983360;28;20507;-70
2021/11/16 05:25:17;;;;;;;24.60;15.90;;;5.20;99.90;;;;;;4983457;28;20158;-64
2021/11/16 05:27:44;;;;;;;28.15;15.32;;;5.20;99.90;;;;;;4983871;28;20132;-64
2021/11/16 05:30:13;;;;;;;26.63;15.65;;;5.30;99.90;;;;;;4985862;28;20046;-73
2021/11/16 05:32:42;;;;;;;27.95;19.20;;;5.20;99.90;;;;;;4987309;28;20387;-67
2021/11/16 05:35:10;;;;;;;27.10;15.35;;;5.20;99.90;;;;;;4976325;28;20042;-64
2021/11/16 05:37:40;;;;;;;26.88;15.38;;;5.30;99.90;;;;;;4984918;28;20050;-68
2021/11/16 05:40:08;;;;;;;32.40;18.17;;;5.20;99.90;;;;;;4981825;28;20094;-64
2021/11/16 05:42:35;;;;;;;31.58;18.23;;;5.30;99.90;;;;;;5014862;28;20362;-67
2021/11/16 05:45:04;;;;;;;34.33;18.35;;;5.20;99.90;;;;;;4981781;28;20165;-66
2021/11/16 05:47:32;;;;;;;37.13;17.80;;;5.30;99.90;;;;;;4984157;28;20046;-63
2021/11/16 05:49:59;;;;;;;31.92;16.92;;;5.30;99.90;;;;;;4982708;28;20066;-65
2021/11/16 05:52:27;;;;;;;28.67;18.80;;;5.30;99.90;;;;;;4982139;28;20117;-67
2021/11/16 05:54:54;;;;;;;29.98;17.35;;;5.30;99.90;;;;;;4981368;28;20108;-67
2021/11/16 05:57:21;;;;;;;33.00;19.75;;;5.30;99.90;;;;;;4985871;28;20272;-64
2021/11/16 05:59:48;;;;;;;26.88;19.50;;;5.30;99.90;;;;;;4982728;28;20437;-64
2021/11/16 06:02:15;;;;;;;28.55;18.45;;;5.30;99.90;;;;;;4985808;28;20066;-68
2021/11/16 06:04:44;;;;;;;29.52;18.45;;;5.30;99.90;;;;;;4985469;28;20507;-64
2021/11/16 06:07:13;;;;;;;32.10;18.83;;;5.30;99.90;;;;;;4983641;28;20385;-63
2021/11/16 06:09:42;;;;;;;31.33;17.38;;;5.30;99.90;;;;;;4983554;28;20046;-63
2021/11/16 06:12:10;;;;;;;29.90;18.02;;;5.30;99.90;;;;;;4978917;28;20133;-71
2021/11/16 06:14:38;;;;;;;28.77;19.48;;;5.30;99.90;;;;;;4986188;28;20046;-65
2021/11/16 06:17:06;;;;;;;35.20;19.65;;;5.30;99.90;;;;;;4986771;28;20136;-67
2021/11/16 06:19:36;;;;;;;29.52;19.67;;;5.30;99.90;;;;;;4986648;28;20039;-70
2021/11/16 06:22:04;;;;;;;;;;;5.40;99.90;;;;;;4983408;28;20408;-67
2021/11/16 06:24:31;;;;;;;39.30;18.42;;;5.30;99.90;;;;;;4981699;28;19925;-63
2021/11/16 06:26:58;;;;;;;35.55;20.17;;;5.40;99.90;;;;;;4981616;28;20058;-64
2021/11/16 06:29:25;;;;;;;35.72;20.05;;;5.40;99.90;;;;;;4987582;28;20042;-69
2021/11/16 06:31:52;;;;;;;33.38;19.70;;;5.40;99.90;;;;;;4984537;28;20109;-66
2021/11/16 06:34:20;;;;;;;30.27;17.73;;;5.40;99.90;;;;;;4979309;28;20171;-64
2021/11/16 06:36:47;;;;;;;29.27;19.30;;;5.40;99.90;;;;;;4986287;28;20135;-65
2021/11/16 06:39:17;;;;;;;30.35;18.75;;;5.40;99.90;;;;;;4986654;28;20468;-67
2021/11/16 06:41:47;;;;;;;33.40;18.63;;;5.40;99.90;;;;;;4982826;28;20486;-65
2021/11/16 06:44:18;;;;;;;34.15;21.90;;;5.50;99.90;;;;;;4983150;28;20060;-63
2021/11/16 06:46:45;;;;;;;;;;;5.50;99.90;;;;;;4984539;28;20058;-64
2021/11/16 06:49:13;;;;;;;30.30;19.65;;;5.50;99.90;;;;;;4987423;28;20016;-63
2021/11/16 06:51:42;;;;;;;32.40;20.02;;;5.50;99.90;;;;;;4989081;28;20096;-63
2021/11/16 06:54:12;;;;;;;32.00;19.00;;;5.60;99.90;;;;;;4987905;28;20077;-66
2021/11/16 06:56:40;;;;;;;30.55;17.73;;;5.60;99.90;;;;;;4986755;28;20053;-65
2021/11/16 06:59:08;;;;;;;24.08;17.30;;;5.70;99.90;;;;;;4985165;28;20133;-68
2021/11/16 07:01:37;;;;;;;31.23;19.00;;;5.80;99.90;;;;;;4989898;28;20054;-66
2021/11/16 07:04:10;;;;;;;39.60;18.80;;;5.70;99.90;;;;;;4988226;28;20045;-67
2021/11/16 07:06:43;;;;;;;30.80;18.55;;;5.80;99.90;;;;;;4986437;28;20492;-65
2021/11/16 07:09:13;;;;;;;26.38;17.30;;;5.80;99.90;;;;;;4986082;28;20388;-66
2021/11/16 07:11:52;;;;;;;33.65;19.70;;;5.80;99.90;;;;;;4987385;28;20092;-63
2021/11/16 07:14:26;;;;;;;25.27;17.55;;;5.80;99.90;;;;;;4985241;28;20053;-67
2021/11/16 07:16:53;;;;;;;30.58;19.67;;;5.80;99.90;;;;;;4992673;28;20041;-63
2021/11/16 07:19:47;;;;;;;29.30;16.02;;;5.80;99.90;;;;;;4986774;28;20046;-64
2021/11/16 07:22:19;;;;;;;25.70;17.02;;;5.80;99.90;;;;;;4986008;28;20117;-63
2021/11/16 07:24:51;;;;;;;23.83;15.20;;;5.90;99.90;;;;;;4988306;28;20047;-64
2021/11/16 07:27:21;;;;;;;30.60;19.55;;;5.80;99.90;;;;;;4985596;28;20050;-72
2021/11/16 07:29:51;;;;;;;29.15;17.48;;;5.90;99.90;;;;;;4991178;28;20101;-66
2021/11/16 07:32:24;;;;;;;;;;;5.90;99.90;;;;;;4985781;28;20088;-70
2021/11/16 07:34:52;;;;;;;25.77;15.85;;;5.90;99.90;;;;;;4988228;28;19987;-66
2021/11/16 07:37:25;;;;;;;24.35;16.20;;;5.90;99.90;;;;;;4986816;28;20054;-66
2021/11/16 07:39:55;;;;;;;21.27;16.83;;;5.90;99.90;;;;;;4986840;28;20062;-66
2021/11/16 07:42:26;;;;;;;28.35;15.82;;;5.90;99.90;;;;;;4990222;28;20137;-63
2021/11/16 07:45:12;;;;;;;28.02;16.02;;;5.90;99.90;;;;;;4988292;28;20050;-64
2021/11/16 07:47:56;;;;;;;24.50;16.80;;;6.00;99.90;;;;;;4990059;28;20101;-63
2021/11/16 07:50:28;;;;;;;23.63;15.27;;;6.00;99.90;;;;;;4984056;28;20392;-64
2021/11/16 07:53:09;;;;;;;26.02;17.58;;;5.90;99.90;;;;;;4986930;28;20038;-63
2021/11/16 07:55:37;;;;;;;28.52;17.77;;;5.90;99.90;;;;;;4985765;28;20053;-67
2021/11/16 07:58:06;;;;;;;31.63;18.02;;;5.90;99.90;;;;;;4988697;28;20422;-69
2021/11/16 08:00:37;;;;;;;30.00;17.02;;;5.90;99.90;;;;;;4985005;28;20050;-63
2021/11/16 08:03:15;;;;;;;25.15;17.48;;;5.90;99.90;;;;;;4989315;28;20110;-63
2021/11/16 08:11:31;;;;;;;22.98;16.23;;;5.80;99.90;;;;;;4989357;28;20093;-64
2021/11/16 08:14:06;;;;;;;22.33;14.30;;;5.90;99.90;;;;;;4987124;28;20125;-63
2021/11/16 08:16:36;;;;;;;21.48;14.27;;;5.90;99.90;;;;;;4987677;28;20046;-63
2021/11/16 08:19:08;;;;;;;21.65;14.70;;;5.90;99.90;;;;;;4989383;28;20066;-63
2021/11/16 08:21:37;;;;;;;28.50;19.48;;;5.90;99.90;;;;;;4986057;28;20108;-63
2021/11/16 08:24:10;;;;;;;27.42;16.65;;;5.90;99.90;;;;;;4987637;28;20409;-63
2021/11/16 08:26:40;;;;;;;28.83;16.60;;;5.90;99.90;;;;;;4986727;28;20373;-67
2021/11/16 08:29:11;;;;;;;23.55;15.63;;;5.90;99.90;;;;;;4988389;28;21349;-63
2021/11/16 08:31:44;;;;;;;;;;;6.00;99.90;;;;;;4986773;28;20054;-66
2021/11/16 08:34:13;;;;;;;28.83;16.45;;;5.90;99.90;;;;;;4985152;28;19963;-63
2021/11/16 08:36:52;;;;;;;25.70;17.10;;;5.90;99.90;;;;;;4988217;28;20513;-64
2021/11/16 08:39:31;;;;;;;28.10;16.95;;;5.90;99.90;;;;;;4986115;28;20416;-65
2021/11/16 08:41:58;;;;;;;25.67;17.20;;;5.90;99.90;;;;;;4985566;28;20069;-68
2021/11/16 08:44:31;;;;;;;22.88;16.02;;;5.90;99.90;;;;;;4987381;28;20142;-63
2021/11/16 08:47:09;;;;;;;27.20;16.63;;;5.90;99.90;;;;;;4985993;28;20050;-62
2021/11/16 08:49:39;;;;;;;24.48;16.20;;;6.00;99.90;;;;;;4988944;28;20062;-63
2021/11/16 08:52:17;;;;;;;28.45;16.05;;;5.90;99.90;;;;;;4986913;28;20488;-66
2021/11/16 08:55:04;;;;;;;25.25;17.25;;;5.90;99.90;;;;;;4987055;28;20046;-66
2021/11/16 08:57:33;;;;;;;25.67;15.65;;;5.90;99.90;;;;;;4986019;28;20054;-70
2021/11/16 09:00:12;;;;;;;24.65;16.35;;;5.90;99.90;;;;;;4981729;28;20442;-62
2021/11/16 09:02:39;;;;;;;22.75;14.70;;;5.90;99.90;;;;;;4987101;28;20126;-65
2021/11/16 09:05:12;;;;;;;28.85;16.30;;;5.90;99.90;;;;;;4981418;28;20523;-65
2021/11/16 09:07:57;;;;;;;23.10;16.25;;;5.90;99.90;;;;;;4988569;28;20038;-71
2021/11/16 09:10:39;;;;;;;22.17;14.68;;;5.90;99.90;;;;;;4984734;28;20468;-63
2021/11/16 09:13:08;;;;;;;20.80;13.95;;;5.90;99.90;;;;;;4986659;28;20050;-63
2021/11/16 09:15:43;;;;;;;22.40;15.05;;;5.90;99.90;;;;;;4987097;28;20046;-63
2021/11/16 09:18:29;;;;;;;21.85;13.32;;;6.00;99.90;;;;;;4986465;28;20070;-69
2021/11/16 09:21:01;;;;;;;21.15;12.85;;;6.00;99.90;;;;;;5015941;28;20050;-66
2021/11/16 09:23:46;;;;;;;18.08;11.80;;;6.00;99.90;;;;;;4985650;28;20049;-67
2021/11/16 09:26:20;;;;;;;17.20;12.77;;;6.10;99.90;;;;;;4986569;28;20444;-69
2021/11/16 09:28:51;;;;;;;19.55;13.88;;;6.00;99.90;;;;;;4985475;28;20121;-70
2021/11/16 09:31:26;;;;;;;18.65;12.30;;;6.00;99.90;;;;;;4987423;28;20081;-63
2021/11/16 09:33:57;;;;;;;15.95;12.15;;;6.00;99.90;;;;;;4988250;28;20112;-63
2021/11/16 09:36:37;;;;;;;23.02;13.98;;;6.00;99.90;;;;;;4985010;28;20050;-63
2021/11/16 09:39:19;;;;;;;19.30;12.27;;;6.00;99.90;;;;;;4986159;28;20392;-63
2021/11/16 09:41:53;;;;;;;21.95;14.60;;;6.00;99.90;;;;;;4983556;28;20047;-74
2021/11/16 09:44:41;;;;;;;20.02;13.00;;;6.00;99.90;;;;;;4983176;28;20050;-63
2021/11/16 09:47:17;;;;;;;20.60;14.13;;;6.10;99.90;;;;;;4986844;28;20447;-64
2021/11/16 09:49:51;;;;;;;21.52;13.98;;;6.10;99.90;;;;;;4986321;28;20066;-71
2021/11/16 09:52:20;;;;;;;21.08;13.20;;;6.10;99.90;;;;;;4985784;28;20153;-63
2021/11/16 09:54:52;;;;;;;24.85;13.98;;;6.10;99.90;;;;;;4987294;28;20042;-66
2021/11/16 09:57:26;;;;;;;21.58;14.00;;;6.10;99.90;;;;;;4983718;28;20120;-62
2021/11/16 10:00:12;;;;;;;29.55;18.10;;;6.10;99.90;;;;;;4985862;28;20416;-64
2021/11/16 10:02:48;;;;;;;22.90;13.93;;;6.10;99.90;;;;;;4986615;28;20149;-66
2021/11/16 10:05:22;;;;;;;28.15;18.05;;;6.10;99.90;;;;;;5002403;28;20061;-67
2021/11/16 10:07:54;;;;;;;20.30;15.55;;;6.10;99.90;;;;;;4986446;28;20054;-67
2021/11/16 10:10:23;;;;;;;26.00;15.40;;;6.10;99.90;;;;;;4986961;28;20101;-63
2021/11/16 10:12:53;;;;;;;20.50;14.13;;;6.10;99.90;;;;;;4983426;28;20050;-63
2021/11/16 10:15:23;;;;;;;23.10;15.23;;;6.10;99.90;;;;;;4988422;28;20343;-63
2021/11/16 10:17:51;;;;;;;26.15;18.20;;;6.10;99.90;;;;;;4983582;28;20745;-63
2021/11/16 10:20:22;;;;;;;19.33;14.25;;;6.20;99.90;;;;;;4983835;28;20078;-72
2021/11/16 10:23:12;;;;;;;22.20;15.95;;;6.20;99.90;;;;;;4987372;28;20057;-64
2021/11/16 10:25:49;;;;;;;23.67;14.73;;;6.30;99.90;;;;;;4988898;28;20050;-66
2021/11/16 10:28:17;;;;;;;23.20;15.18;;;6.20;99.90;;;;;;4987755;28;20160;-64
2021/11/16 10:30:45;;;;;;;23.90;14.57;;;6.30;99.90;;;;;;4991676;28;20193;-67
2021/11/16 10:33:18;;;;;;;23.30;13.88;;;6.30;99.90;;;;;;5004032;28;20162;-64
2021/11/16 10:35:49;;;;;;;20.33;13.75;;;6.30;99.90;;;;;;5004545;28;20046;-63
2021/11/16 10:38:30;;;;;;;22.95;14.30;;;6.30;99.90;;;;;;4986429;28;20046;-63
2021/11/16 10:41:00;;;;;;;18.77;13.40;;;6.30;99.90;;;;;;4987023;28;20034;-64
2021/11/16 10:43:39;;;;;;;27.70;14.90;;;6.30;99.90;;;;;;4988265;28;20519;-70
2021/11/16 10:46:07;;;;;;;22.00;15.23;;;6.30;99.90;;;;;;4989157;28;20058;-63
2021/11/16 10:48:37;;;;;;;19.60;13.93;;;6.30;99.90;;;;;;4993780;28;20117;-64
2021/11/16 10:51:11;;;;;;;20.40;14.70;;;6.30;99.90;;;;;;4987151;28;20054;-64
2021/11/16 10:53:41;;;;;;;22.42;15.60;;;6.30;99.90;;;;;;4986007;28;20038;-64
2021/11/16 10:56:08;;;;;;;18.85;13.18;;;6.30;99.90;;;;;;4987034;28;20375;-66
2021/11/16 10:58:41;;;;;;;20.85;13.80;;;6.40;99.90;;;;;;4988125;28;20050;-65
2021/11/16 11:01:11;;;;;;;26.75;13.68;;;6.30;99.90;;;;;;4995367;28;20500;-66
2021/11/16 11:03:42;;;;;;;;;;;6.30;99.90;;;;;;4988837;28;20042;-66
2021/11/16 11:06:15;;;;;;;20.05;14.68;;;6.40;99.90;;;;;;4987952;28;19922;-75
2021/11/16 11:08:53;;;;;;;25.48;16.13;;;6.40;99.90;;;;;;4988462;28;20180;-63
2021/11/16 11:11:35;;;;;;;22.48;15.40;;;6.40;99.90;;;;;;4986543;28;20369;-67
2021/11/16 11:14:13;;;;;;;24.90;14.43;;;6.40;99.90;;;;;;4983568;28;20101;-65
2021/11/16 11:16:41;;;;;;;25.38;14.43;;;6.40;99.90;;;;;;5002809;28;20100;-70
2021/11/16 11:19:16;;;;;;;21.15;14.35;;;6.40;99.90;;;;;;4992038;28;20399;-64
2021/11/16 11:21:56;;;;;;;20.98;14.25;;;6.40;99.90;;;;;;4987598;28;20105;-63
2021/11/16 11:24:38;;;;;;;19.85;13.85;;;6.40;99.90;;;;;;4979558;28;20074;-65
2021/11/16 11:27:19;;;;;;;20.60;14.07;;;6.40;99.90;;;;;;4991185;28;20047;-63
2021/11/16 11:29:56;;;;;;;21.95;15.20;;;6.40;99.90;;;;;;4998640;28;20357;-63
2021/11/16 11:32:27;;;;;;;20.02;12.80;;;6.40;99.90;;;;;;4989316;28;20108;-64
2021/11/16 11:34:59;;;;;;;23.98;15.68;;;6.40;99.90;;;;;;4986691;28;20120;-76
2021/11/16 11:37:32;;;;;;;25.55;15.48;;;6.40;99.90;;;;;;4982848;28;20535;-64
2021/11/16 11:40:05;;;;;;;23.67;15.30;;;6.30;99.90;;;;;;4987562;28;20101;-66
2021/11/16 11:42:35;;;;;;;19.27;13.75;;;6.40;99.90;;;;;;4987840;28;20069;-63
2021/11/16 11:45:30;;;;;;;24.60;16.33;;;6.40;99.90;;;;;;4982693;28;20625;-66
2021/11/16 11:48:05;;;;;;;22.33;15.05;;;6.30;99.90;;;;;;4980881;28;20141;-65
2021/11/16 11:50:45;;;;;;;20.75;15.18;;;6.30;99.90;;;;;;4982159;28;20504;-63
2021/11/16 11:53:18;;;;;;;21.60;14.35;;;6.30;99.90;;;;;;4988131;28;20050;-65
2021/11/16 11:55:49;;;;;;;21.17;14.80;;;6.30;99.90;;;;;;4990495;28;20046;-64
2021/11/16 11:58:18;;;;;;;19.10;13.30;;;6.30;99.90;;;;;;4985471;28;20074;-63
2021/11/16 12:00:49;;;;;;;20.47;14.63;;;6.30;99.90;;;;;;4982649;28;20050;-62
2021/11/16 12:03:18;;;;;;;;;;;6.30;99.90;;;;;;4990782;28;20045;-66
2021/11/16 12:05:45;;;;;;;21.83;14.75;;;6.30;99.90;;;;;;4983452;28;20028;-63
2021/11/16 12:08:13;;;;;;;26.63;16.25;;;6.30;99.90;;;;;;4993768;28;20204;-63
2021/11/16 12:10:43;;;;;;;22.75;15.73;;;6.30;99.90;;;;;;4988126;28;20345;-76
2021/11/16 12:13:10;;;;;;;24.70;16.30;;;6.30;99.90;;;;;;4987405;28;20051;-63
2021/11/16 12:15:48;;;;;;;22.60;16.35;;;6.30;99.90;;;;;;4988348;28;20070;-62
2021/11/16 12:18:16;;;;;;;23.58;15.30;;;6.30;99.90;;;;;;4987976;28;20054;-62
2021/11/16 12:20:49;;;;;;;25.23;15.55;;;6.30;99.90;;;;;;4988212;28;20522;-63
2021/11/16 12:23:47;;;;;;;22.83;14.88;;;6.30;99.90;;;;;;4987061;28;20081;-68
2021/11/16 12:26:16;;;;;;;24.88;16.30;;;6.30;99.90;;;;;;4986746;28;20088;-63
2021/11/16 12:28:44;;;;;;;24.10;15.18;;;6.30;99.90;;;;;;4987992;28;20047;-64
2021/11/16 12:31:29;;;;;;;26.52;14.68;;;6.30;99.90;;;;;;4987853;28;20130;-68
2021/11/16 12:33:58;;;;;;;20.50;14.48;;;6.30;99.90;;;;;;4987437;28;20034;-63
2021/11/16 12:36:27;;;;;;;24.35;15.77;;;6.30;99.90;;;;;;4987109;28;20220;-63
2021/11/16 12:38:55;;;;;;;24.85;16.60;;;6.30;99.90;;;;;;4988096;28;20038;-65
2021/11/16 12:41:29;;;;;;;23.35;16.38;;;6.30;99.90;;;;;;4985680;28;20122;-64
2021/11/16 12:43:59;;;;;;;23.65;15.20;;;6.30;99.90;;;;;;4986746;28;20164;-63
2021/11/16 12:46:29;;;;;;;25.08;17.15;;;6.30;99.90;;;;;;4981213;28;20092;-64
2021/11/16 12:48:56;;;;;;;25.55;16.02;;;6.30;99.90;;;;;;4978607;28;20038;-63
2021/11/16 12:51:31;;;;;;;27.48;15.90;;;6.30;99.90;;;;;;4985328;28;20339;-63
2021/11/16 12:54:01;;;;;;;25.23;17.80;;;6.30;99.90;;;;;;4984488;28;20048;-65
2021/11/16 12:56:48;;;;;;;;;;;6.20;99.90;;;;;;4979744;28;20712;-63
2021/11/16 12:59:42;;;;;;;25.30;14.98;;;6.30;99.90;;;;;;4986653;28;19940;-64
2021/11/16 13:02:52;;;;;;;23.08;14.63;;;6.30;99.90;;;;;;4986460;28;20046;-65
2021/11/16 13:05:36;;;;;;;26.45;17.00;;;6.20;99.90;;;;;;4944406;28;20055;-67
2021/11/16 13:08:05;;;;;;;24.20;14.75;;;6.20;99.90;;;;;;4985879;28;20555;-63
2021/11/16 13:10:44;;;;;;;23.20;15.20;;;6.30;99.90;;;;;;4983850;28;20473;-64
2021/11/16 13:13:16;;;;;;;26.73;16.20;;;6.20;99.90;;;;;;4984261;28;20039;-65
2021/11/16 13:15:48;;;;;;;29.10;16.17;;;6.20;99.90;;;;;;4984834;28;20058;-63